sensor_id;sensor_type;location;lat;lon;timestamp;P1;durP1;ratioP1;P2;durP2;ratioP2
27802;SDS011;15182;48.174;11.562;2022-10-16T00:02:21;5.13;;;2.10;;
27802;SDS011;15182;48.174;11.562;2022-10-16T00:04:52;2.73;;;2.73;;
27802;SDS011;15182;48.174;11.562;2022-10-16T00:07:24;3.33;;;2.60;;
27802;SDS011;15182;48.174;11.562;2022-10-16T00:09:55;2.50;;;2.50;;
27802;SDS011;15182;48.174;11.562;2022-10-16T00:12:27;2.53;;;2.33;;
27802;SDS011;15182;48.174;11.562;2022-10-16T00:14:59;2.70;;;2.60;;
27802;SDS011;15182;48.174;11.562;2022-10-16T00:17:31;2.70;;;2.50;;
27802;SDS011;15182;48.174;11.562;2022-10-16T00:20:03;2.40;;;2.40;;
27802;SDS011;15182;48.174;11.562;2022-10-16T00:22:37;3.30;;;3.10;;
27802;SDS011;15182;48.174;11.562;2022-10-16T00:25:08;3.47;;;2.70;;
27802;SDS011;15182;48.174;11.562;2022-10-16T00:27:40;2.63;;;2.53;;
27802;SDS011;15182;48.174;11.562;2022-10-16T00:30:12;2.50;;;2.50;;
27802;SDS011;15182;48.174;11.562;2022-10-16T00:32:43;2.47;;;2.47;;
27802;SDS011;15182;48.174;11.562;2022-10-16T00:35:15;2.40;;;2.40;;
27802;SDS011;15182;48.174;11.562;2022-10-16T00:37:46;2.40;;;2.40;;
27802;SDS011;15182;48.174;11.562;2022-10-16T00:40:17;2.77;;;2.67;;
27802;SDS011;15182;48.174;11.562;2022-10-16T00:42:49;2.30;;;2.30;;
27802;SDS011;15182;48.174;11.562;2022-10-16T00:45:22;2.10;;;2.10;;
27802;SDS011;15182;48.174;11.562;2022-10-16T00:47:53;2.40;;;2.40;;
27802;SDS011;15182;48.174;11.562;2022-10-16T00:50:27;6.37;;;2.50;;
27802;SDS011;15182;48.174;11.562;2022-10-16T00:53:01;2.43;;;2.33;;
27802;SDS011;15182;48.174;11.562;2022-10-16T00:55:32;5.70;;;2.50;;
27802;SDS011;15182;48.174;11.562;2022-10-16T00:58:04;3.07;;;2.47;;
27802;SDS011;15182;48.174;11.562;2022-10-16T01:00:37;2.77;;;2.67;;
27802;SDS011;15182;48.174;11.562;2022-10-16T01:03:21;2.10;;;2.10;;
27802;SDS011;15182;48.174;11.562;2022-10-16T01:05:54;2.43;;;2.37;;
27802;SDS011;15182;48.174;11.562;2022-10-16T01:08:44;2.80;;;2.60;;
27802;SDS011;15182;48.174;11.562;2022-10-16T01:11:22;3.13;;;2.50;;
27802;SDS011;15182;48.174;11.562;2022-10-16T01:14:00;2.63;;;2.43;;
27802;SDS011;15182;48.174;11.562;2022-10-16T01:16:44;2.80;;;2.63;;
27802;SDS011;15182;48.174;11.562;2022-10-16T01:19:20;2.50;;;2.40;;
27802;SDS011;15182;48.174;11.562;2022-10-16T01:22:03;2.57;;;2.30;;
27802;SDS011;15182;48.174;11.562;2022-10-16T01:24:39;2.20;;;2.20;;
27802;SDS011;15182;48.174;11.562;2022-10-16T01:27:17;2.47;;;2.17;;
27802;SDS011;15182;48.174;11.562;2022-10-16T01:29:56;2.20;;;2.10;;
27802;SDS011;15182;48.174;11.562;2022-10-16T01:32:33;7.23;;;2.30;;
27802;SDS011;15182;48.174;11.562;2022-10-16T01:35:08;2.50;;;2.30;;
27802;SDS011;15182;48.174;11.562;2022-10-16T01:37:50;4.00;;;2.10;;
27802;SDS011;15182;48.174;11.562;2022-10-16T01:40:28;3.03;;;2.33;;
27802;SDS011;15182;48.174;11.562;2022-10-16T01:43:06;3.83;;;2.70;;
27802;SDS011;15182;48.174;11.562;2022-10-16T01:45:42;1.97;;;1.97;;
27802;SDS011;15182;48.174;11.562;2022-10-16T01:48:17;2.17;;;2.17;;
27802;SDS011;15182;48.174;11.562;2022-10-16T01:50:51;2.93;;;1.80;;
27802;SDS011;15182;48.174;11.562;2022-10-16T01:53:24;2.10;;;2.10;;
27802;SDS011;15182;48.174;11.562;2022-10-16T01:55:58;2.10;;;2.00;;
27802;SDS011;15182;48.174;11.562;2022-10-16T01:58:36;2.10;;;2.00;;
27802;SDS011;15182;48.174;11.562;2022-10-16T02:01:11;2.40;;;2.30;;
27802;SDS011;15182;48.174;11.562;2022-10-16T02:03:46;2.33;;;2.23;;
27802;SDS011;15182;48.174;11.562;2022-10-16T02:06:20;2.63;;;2.63;;
27802;SDS011;15182;48.174;11.562;2022-10-16T02:08:53;2.20;;;2.20;;
27802;SDS011;15182;48.174;11.562;2022-10-16T02:11:25;4.77;;;2.70;;
27802;SDS011;15182;48.174;11.562;2022-10-16T02:13:58;2.40;;;2.40;;
27802;SDS011;15182;48.174;11.562;2022-10-16T02:16:34;2.50;;;2.40;;
27802;SDS011;15182;48.174;11.562;2022-10-16T02:19:11;2.83;;;2.50;;
27802;SDS011;15182;48.174;11.562;2022-10-16T02:21:46;4.20;;;2.40;;
27802;SDS011;15182;48.174;11.562;2022-10-16T02:24:25;2.20;;;2.20;;
27802;SDS011;15182;48.174;11.562;2022-10-16T02:27:02;2.50;;;2.40;;
27802;SDS011;15182;48.174;11.562;2022-10-16T02:29:39;2.20;;;2.10;;
27802;SDS011;15182;48.174;11.562;2022-10-16T02:32:16;2.70;;;2.60;;
27802;SDS011;15182;48.174;11.562;2022-10-16T02:34:56;2.70;;;2.60;;
27802;SDS011;15182;48.174;11.562;2022-10-16T02:37:28;2.17;;;2.10;;
27802;SDS011;15182;48.174;11.562;2022-10-16T02:40:01;2.17;;;2.07;;
27802;SDS011;15182;48.174;11.562;2022-10-16T02:42:33;2.30;;;2.20;;
27802;SDS011;15182;48.174;11.562;2022-10-16T02:45:09;1.80;;;1.80;;
27802;SDS011;15182;48.174;11.562;2022-10-16T02:47:41;2.90;;;2.80;;
27802;SDS011;15182;48.174;11.562;2022-10-16T02:50:12;2.27;;;2.27;;
27802;SDS011;15182;48.174;11.562;2022-10-16T02:52:45;2.67;;;2.67;;
27802;SDS011;15182;48.174;11.562;2022-10-16T02:55:16;2.30;;;2.30;;
27802;SDS011;15182;48.174;11.562;2022-10-16T02:57:47;2.27;;;2.17;;
27802;SDS011;15182;48.174;11.562;2022-10-16T03:00:20;2.40;;;2.20;;
27802;SDS011;15182;48.174;11.562;2022-10-16T03:02:51;2.10;;;2.10;;
27802;SDS011;15182;48.174;11.562;2022-10-16T03:05:23;2.40;;;2.30;;
27802;SDS011;15182;48.174;11.562;2022-10-16T03:07:54;2.20;;;2.20;;
27802;SDS011;15182;48.174;11.562;2022-10-16T03:10:26;3.87;;;1.93;;
27802;SDS011;15182;48.174;11.562;2022-10-16T03:12:58;2.10;;;2.10;;
27802;SDS011;15182;48.174;11.562;2022-10-16T03:15:30;2.37;;;2.37;;
27802;SDS011;15182;48.174;11.562;2022-10-16T03:18:02;2.40;;;2.20;;
27802;SDS011;15182;48.174;11.562;2022-10-16T03:20:34;4.63;;;2.30;;
27802;SDS011;15182;48.174;11.562;2022-10-16T03:23:05;2.00;;;1.90;;
27802;SDS011;15182;48.174;11.562;2022-10-16T03:25:37;2.10;;;2.00;;
27802;SDS011;15182;48.174;11.562;2022-10-16T03:28:08;2.00;;;1.90;;
27802;SDS011;15182;48.174;11.562;2022-10-16T03:30:42;2.30;;;1.83;;
27802;SDS011;15182;48.174;11.562;2022-10-16T03:33:13;2.00;;;1.90;;
27802;SDS011;15182;48.174;11.562;2022-10-16T03:35:50;3.90;;;2.47;;
27802;SDS011;15182;48.174;11.562;2022-10-16T03:38:22;2.17;;;1.97;;
27802;SDS011;15182;48.174;11.562;2022-10-16T03:40:54;2.13;;;1.97;;
27802;SDS011;15182;48.174;11.562;2022-10-16T03:43:25;2.10;;;2.10;;
27802;SDS011;15182;48.174;11.562;2022-10-16T03:45:58;1.80;;;1.80;;
27802;SDS011;15182;48.174;11.562;2022-10-16T03:48:29;1.90;;;1.90;;
27802;SDS011;15182;48.174;11.562;2022-10-16T03:51:00;2.43;;;2.10;;
27802;SDS011;15182;48.174;11.562;2022-10-16T03:53:32;3.67;;;1.77;;
27802;SDS011;15182;48.174;11.562;2022-10-16T03:56:03;2.13;;;2.03;;
27802;SDS011;15182;48.174;11.562;2022-10-16T03:58:35;1.80;;;1.80;;
27802;SDS011;15182;48.174;11.562;2022-10-16T04:01:07;1.87;;;1.87;;
27802;SDS011;15182;48.174;11.562;2022-10-16T04:03:39;2.07;;;1.87;;
27802;SDS011;15182;48.174;11.562;2022-10-16T04:06:10;2.00;;;2.00;;
27802;SDS011;15182;48.174;11.562;2022-10-16T04:08:42;1.63;;;1.63;;
27802;SDS011;15182;48.174;11.562;2022-10-16T04:11:13;2.23;;;1.70;;
27802;SDS011;15182;48.174;11.562;2022-10-16T04:13:44;2.20;;;2.10;;
27802;SDS011;15182;48.174;11.562;2022-10-16T04:16:17;1.83;;;1.83;;
27802;SDS011;15182;48.174;11.562;2022-10-16T04:18:48;2.20;;;2.20;;
27802;SDS011;15182;48.174;11.562;2022-10-16T04:21:19;2.00;;;1.90;;
27802;SDS011;15182;48.174;11.562;2022-10-16T04:23:51;1.93;;;1.93;;
27802;SDS011;15182;48.174;11.562;2022-10-16T04:26:22;1.70;;;1.70;;
27802;SDS011;15182;48.174;11.562;2022-10-16T04:28:54;2.00;;;1.90;;
27802;SDS011;15182;48.174;11.562;2022-10-16T04:31:27;5.63;;;1.90;;
27802;SDS011;15182;48.174;11.562;2022-10-16T04:33:58;2.07;;;1.97;;
27802;SDS011;15182;48.174;11.562;2022-10-16T04:36:30;1.80;;;1.80;;
27802;SDS011;15182;48.174;11.562;2022-10-16T04:39:01;3.60;;;2.07;;
27802;SDS011;15182;48.174;11.562;2022-10-16T04:41:32;1.80;;;1.80;;
27802;SDS011;15182;48.174;11.562;2022-10-16T04:44:04;2.23;;;2.10;;
27802;SDS011;15182;48.174;11.562;2022-10-16T04:46:36;1.77;;;1.77;;
27802;SDS011;15182;48.174;11.562;2022-10-16T04:49:10;1.80;;;1.80;;
27802;SDS011;15182;48.174;11.562;2022-10-16T04:51:41;1.90;;;1.90;;
27802;SDS011;15182;48.174;11.562;2022-10-16T04:54:13;1.83;;;1.83;;
27802;SDS011;15182;48.174;11.562;2022-10-16T04:56:44;2.10;;;2.10;;
27802;SDS011;15182;48.174;11.562;2022-10-16T04:59:18;2.17;;;2.10;;
27802;SDS011;15182;48.174;11.562;2022-10-16T05:01:51;2.10;;;2.10;;
27802;SDS011;15182;48.174;11.562;2022-10-16T05:04:23;2.00;;;1.90;;
27802;SDS011;15182;48.174;11.562;2022-10-16T05:06:54;1.90;;;1.90;;
27802;SDS011;15182;48.174;11.562;2022-10-16T05:09:25;2.03;;;2.03;;
27802;SDS011;15182;48.174;11.562;2022-10-16T05:11:57;2.63;;;2.20;;
27802;SDS011;15182;48.174;11.562;2022-10-16T05:14:29;2.70;;;1.90;;
27802;SDS011;15182;48.174;11.562;2022-10-16T05:17:01;2.03;;;2.03;;
27802;SDS011;15182;48.174;11.562;2022-10-16T05:19:33;1.90;;;1.90;;
27802;SDS011;15182;48.174;11.562;2022-10-16T05:22:04;1.90;;;1.80;;
27802;SDS011;15182;48.174;11.562;2022-10-16T05:24:36;1.90;;;1.90;;
27802;SDS011;15182;48.174;11.562;2022-10-16T05:27:07;2.47;;;2.17;;
27802;SDS011;15182;48.174;11.562;2022-10-16T05:29:44;2.27;;;2.27;;
27802;SDS011;15182;48.174;11.562;2022-10-16T05:32:17;2.00;;;2.00;;
27802;SDS011;15182;48.174;11.562;2022-10-16T05:34:50;2.00;;;2.00;;
27802;SDS011;15182;48.174;11.562;2022-10-16T05:37:23;2.20;;;2.10;;
27802;SDS011;15182;48.174;11.562;2022-10-16T05:39:55;2.00;;;1.90;;
27802;SDS011;15182;48.174;11.562;2022-10-16T05:42:28;1.87;;;1.87;;
27802;SDS011;15182;48.174;11.562;2022-10-16T05:44:59;2.13;;;2.13;;
27802;SDS011;15182;48.174;11.562;2022-10-16T05:47:33;2.80;;;2.10;;
27802;SDS011;15182;48.174;11.562;2022-10-16T05:50:05;2.27;;;2.17;;
27802;SDS011;15182;48.174;11.562;2022-10-16T05:52:36;1.97;;;1.93;;
27802;SDS011;15182;48.174;11.562;2022-10-16T05:55:08;2.17;;;2.17;;
27802;SDS011;15182;48.174;11.562;2022-10-16T05:57:39;2.17;;;2.07;;
27802;SDS011;15182;48.174;11.562;2022-10-16T06:00:11;2.10;;;2.10;;
27802;SDS011;15182;48.174;11.562;2022-10-16T06:02:44;2.33;;;2.13;;
27802;SDS011;15182;48.174;11.562;2022-10-16T06:05:17;2.80;;;2.47;;
27802;SDS011;15182;48.174;11.562;2022-10-16T06:07:48;2.60;;;2.50;;
27802;SDS011;15182;48.174;11.562;2022-10-16T06:10:22;4.27;;;2.60;;
27802;SDS011;15182;48.174;11.562;2022-10-16T06:12:54;2.60;;;2.30;;
27802;SDS011;15182;48.174;11.562;2022-10-16T06:15:25;2.13;;;2.13;;
27802;SDS011;15182;48.174;11.562;2022-10-16T06:17:58;2.60;;;2.60;;
27802;SDS011;15182;48.174;11.562;2022-10-16T06:20:29;2.83;;;2.10;;
27802;SDS011;15182;48.174;11.562;2022-10-16T06:23:01;2.23;;;2.13;;
27802;SDS011;15182;48.174;11.562;2022-10-16T06:25:32;1.90;;;1.90;;
27802;SDS011;15182;48.174;11.562;2022-10-16T06:28:03;2.37;;;2.37;;
27802;SDS011;15182;48.174;11.562;2022-10-16T06:30:34;2.37;;;2.27;;
27802;SDS011;15182;48.174;11.562;2022-10-16T06:33:07;2.90;;;2.70;;
27802;SDS011;15182;48.174;11.562;2022-10-16T06:35:38;2.40;;;2.30;;
27802;SDS011;15182;48.174;11.562;2022-10-16T06:38:09;2.70;;;2.43;;
27802;SDS011;15182;48.174;11.562;2022-10-16T06:40:40;4.57;;;2.60;;
27802;SDS011;15182;48.174;11.562;2022-10-16T06:43:12;2.97;;;2.77;;
27802;SDS011;15182;48.174;11.562;2022-10-16T06:45:43;2.60;;;2.50;;
27802;SDS011;15182;48.174;11.562;2022-10-16T06:48:21;2.70;;;2.60;;
27802;SDS011;15182;48.174;11.562;2022-10-16T06:50:57;2.20;;;2.20;;
27802;SDS011;15182;48.174;11.562;2022-10-16T06:53:33;8.63;;;2.40;;
27802;SDS011;15182;48.174;11.562;2022-10-16T06:56:07;2.43;;;2.33;;
27802;SDS011;15182;48.174;11.562;2022-10-16T06:58:40;3.03;;;2.60;;
27802;SDS011;15182;48.174;11.562;2022-10-16T07:01:13;2.47;;;2.40;;
27802;SDS011;15182;48.174;11.562;2022-10-16T07:03:50;3.10;;;3.00;;
27802;SDS011;15182;48.174;11.562;2022-10-16T07:06:23;2.70;;;2.60;;
27802;SDS011;15182;48.174;11.562;2022-10-16T07:08:57;2.50;;;2.50;;
27802;SDS011;15182;48.174;11.562;2022-10-16T07:11:30;2.93;;;2.83;;
27802;SDS011;15182;48.174;11.562;2022-10-16T07:14:03;3.03;;;2.70;;
27802;SDS011;15182;48.174;11.562;2022-10-16T07:16:42;2.27;;;2.27;;
27802;SDS011;15182;48.174;11.562;2022-10-16T07:19:14;2.87;;;2.67;;
27802;SDS011;15182;48.174;11.562;2022-10-16T07:21:46;2.60;;;2.50;;
27802;SDS011;15182;48.174;11.562;2022-10-16T07:24:17;3.10;;;3.00;;
27802;SDS011;15182;48.174;11.562;2022-10-16T07:26:49;2.83;;;2.73;;
27802;SDS011;15182;48.174;11.562;2022-10-16T07:29:20;3.27;;;3.03;;
27802;SDS011;15182;48.174;11.562;2022-10-16T07:31:52;2.60;;;2.50;;
27802;SDS011;15182;48.174;11.562;2022-10-16T07:34:25;3.07;;;2.77;;
27802;SDS011;15182;48.174;11.562;2022-10-16T07:36:56;3.30;;;3.20;;
27802;SDS011;15182;48.174;11.562;2022-10-16T07:39:27;2.90;;;2.80;;
27802;SDS011;15182;48.174;11.562;2022-10-16T07:41:59;2.53;;;2.53;;
27802;SDS011;15182;48.174;11.562;2022-10-16T07:44:30;2.90;;;2.70;;
27802;SDS011;15182;48.174;11.562;2022-10-16T07:47:02;2.97;;;2.63;;
27802;SDS011;15182;48.174;11.562;2022-10-16T07:49:35;2.87;;;2.77;;
27802;SDS011;15182;48.174;11.562;2022-10-16T07:52:07;2.33;;;2.33;;
27802;SDS011;15182;48.174;11.562;2022-10-16T07:54:38;2.73;;;2.70;;
27802;SDS011;15182;48.174;11.562;2022-10-16T07:57:10;2.67;;;2.63;;
27802;SDS011;15182;48.174;11.562;2022-10-16T07:59:45;2.37;;;2.37;;
27802;SDS011;15182;48.174;11.562;2022-10-16T08:02:16;2.60;;;2.60;;
27802;SDS011;15182;48.174;11.562;2022-10-16T08:04:49;3.03;;;2.93;;
27802;SDS011;15182;48.174;11.562;2022-10-16T08:07:20;2.67;;;2.57;;
27802;SDS011;15182;48.174;11.562;2022-10-16T08:09:52;5.20;;;3.00;;
27802;SDS011;15182;48.174;11.562;2022-10-16T08:12:24;2.87;;;2.77;;
27802;SDS011;15182;48.174;11.562;2022-10-16T08:14:55;3.03;;;2.93;;
27802;SDS011;15182;48.174;11.562;2022-10-16T08:17:26;2.93;;;2.73;;
27802;SDS011;15182;48.174;11.562;2022-10-16T08:19:59;2.93;;;2.63;;
27802;SDS011;15182;48.174;11.562;2022-10-16T08:22:30;6.13;;;2.60;;
27802;SDS011;15182;48.174;11.562;2022-10-16T08:25:02;2.77;;;2.60;;
27802;SDS011;15182;48.174;11.562;2022-10-16T08:27:34;2.57;;;2.47;;
27802;SDS011;15182;48.174;11.562;2022-10-16T08:30:06;2.20;;;2.10;;
27802;SDS011;15182;48.174;11.562;2022-10-16T08:32:42;2.33;;;2.23;;
27802;SDS011;15182;48.174;11.562;2022-10-16T08:35:15;2.40;;;2.30;;
27802;SDS011;15182;48.174;11.562;2022-10-16T08:37:47;2.37;;;2.37;;
27802;SDS011;15182;48.174;11.562;2022-10-16T08:40:19;2.40;;;2.40;;
27802;SDS011;15182;48.174;11.562;2022-10-16T08:43:00;7.65;;;2.10;;
27802;SDS011;15182;48.174;11.562;2022-10-16T08:45:57;2.30;;;2.20;;
27802;SDS011;15182;48.174;11.562;2022-10-16T08:48:47;1.90;;;1.90;;
27802;SDS011;15182;48.174;11.562;2022-10-16T08:51:22;2.20;;;2.10;;
27802;SDS011;15182;48.174;11.562;2022-10-16T08:53:57;3.25;;;2.20;;
27802;SDS011;15182;48.174;11.562;2022-10-16T08:56:32;2.20;;;2.20;;
27802;SDS011;15182;48.174;11.562;2022-10-16T08:59:03;2.40;;;2.30;;
27802;SDS011;15182;48.174;11.562;2022-10-16T09:01:40;4.53;;;2.53;;
27802;SDS011;15182;48.174;11.562;2022-10-16T09:07:18;2.20;;;2.20;;
27802;SDS011;15182;48.174;11.562;2022-10-16T09:10:01;2.30;;;2.20;;
27802;SDS011;15182;48.174;11.562;2022-10-16T09:12:40;1.83;;;1.83;;
27802;SDS011;15182;48.174;11.562;2022-10-16T09:15:24;2.45;;;2.38;;
27802;SDS011;15182;48.174;11.562;2022-10-16T09:17:59;1.95;;;1.95;;
27802;SDS011;15182;48.174;11.562;2022-10-16T09:20:39;2.10;;;2.10;;
27802;SDS011;15182;48.174;11.562;2022-10-16T09:23:22;1.90;;;1.90;;
27802;SDS011;15182;48.174;11.562;2022-10-16T09:25:58;1.90;;;1.90;;
27802;SDS011;15182;48.174;11.562;2022-10-16T09:28:30;2.35;;;2.35;;
27802;SDS011;15182;48.174;11.562;2022-10-16T09:31:02;2.05;;;2.05;;
27802;SDS011;15182;48.174;11.562;2022-10-16T09:33:35;1.90;;;1.90;;
27802;SDS011;15182;48.174;11.562;2022-10-16T09:36:08;2.13;;;2.13;;
27802;SDS011;15182;48.174;11.562;2022-10-16T09:38:42;1.92;;;1.92;;
27802;SDS011;15182;48.174;11.562;2022-10-16T09:41:16;2.28;;;2.22;;
27802;SDS011;15182;48.174;11.562;2022-10-16T09:43:52;2.17;;;2.17;;
27802;SDS011;15182;48.174;11.562;2022-10-16T09:46:27;2.00;;;2.00;;
27802;SDS011;15182;48.174;11.562;2022-10-16T09:49:01;2.25;;;1.83;;
27802;SDS011;15182;48.174;11.562;2022-10-16T09:51:47;1.85;;;1.83;;
27802;SDS011;15182;48.174;11.562;2022-10-16T09:54:30;2.40;;;2.30;;
27802;SDS011;15182;48.174;11.562;2022-10-16T09:57:05;2.00;;;2.00;;
27802;SDS011;15182;48.174;11.562;2022-10-16T09:59:46;2.00;;;2.00;;
27802;SDS011;15182;48.174;11.562;2022-10-16T10:02:23;2.13;;;2.13;;
27802;SDS011;15182;48.174;11.562;2022-10-16T10:05:01;2.20;;;2.10;;
27802;SDS011;15182;48.174;11.562;2022-10-16T10:07:35;2.10;;;2.00;;
27802;SDS011;15182;48.174;11.562;2022-10-16T10:10:20;2.30;;;2.30;;
27802;SDS011;15182;48.174;11.562;2022-10-16T10:12:54;2.00;;;1.95;;
27802;SDS011;15182;48.174;11.562;2022-10-16T10:15:26;2.80;;;2.05;;
27802;SDS011;15182;48.174;11.562;2022-10-16T10:18:15;2.20;;;1.90;;
27802;SDS011;15182;48.174;11.562;2022-10-16T10:20:57;1.92;;;1.92;;
27802;SDS011;15182;48.174;11.562;2022-10-16T10:23:31;2.25;;;2.20;;
27802;SDS011;15182;48.174;11.562;2022-10-16T10:26:05;2.03;;;2.03;;
27802;SDS011;15182;48.174;11.562;2022-10-16T10:28:49;1.92;;;1.92;;
27802;SDS011;15182;48.174;11.562;2022-10-16T10:31:25;1.77;;;1.77;;
27802;SDS011;15182;48.174;11.562;2022-10-16T10:34:05;1.50;;;1.50;;
27802;SDS011;15182;48.174;11.562;2022-10-16T10:37:02;1.52;;;1.52;;
27802;SDS011;15182;48.174;11.562;2022-10-16T10:39:52;1.95;;;1.67;;
27802;SDS011;15182;48.174;11.562;2022-10-16T10:42:30;1.70;;;1.70;;
27802;SDS011;15182;48.174;11.562;2022-10-16T10:45:18;1.70;;;1.70;;
27802;SDS011;15182;48.174;11.562;2022-10-16T10:50:51;1.70;;;1.60;;
27802;SDS011;15182;48.174;11.562;2022-10-16T10:53:31;3.08;;;1.80;;
27802;SDS011;15182;48.174;11.562;2022-10-16T10:56:15;1.40;;;1.40;;
27802;SDS011;15182;48.174;11.562;2022-10-16T10:59:00;1.50;;;1.50;;
27802;SDS011;15182;48.174;11.562;2022-10-16T11:01:44;1.67;;;1.58;;
27802;SDS011;15182;48.174;11.562;2022-10-16T11:04:29;1.95;;;1.40;;
27802;SDS011;15182;48.174;11.562;2022-10-16T11:07:17;1.35;;;1.35;;
27802;SDS011;15182;48.174;11.562;2022-10-16T11:09:55;1.50;;;1.50;;
27802;SDS011;15182;48.174;11.562;2022-10-16T11:12:33;1.30;;;1.30;;
27802;SDS011;15182;48.174;11.562;2022-10-16T11:15:12;1.33;;;1.33;;
27802;SDS011;15182;48.174;11.562;2022-10-16T11:17:52;1.40;;;1.40;;
27802;SDS011;15182;48.174;11.562;2022-10-16T11:20:32;1.40;;;1.40;;
27802;SDS011;15182;48.174;11.562;2022-10-16T11:23:05;1.52;;;1.40;;
27802;SDS011;15182;48.174;11.562;2022-10-16T11:25:44;1.10;;;1.10;;
27802;SDS011;15182;48.174;11.562;2022-10-16T11:28:19;1.30;;;1.30;;
27802;SDS011;15182;48.174;11.562;2022-10-16T11:30:59;1.20;;;1.20;;
27802;SDS011;15182;48.174;11.562;2022-10-16T11:33:36;1.17;;;1.17;;
27802;SDS011;15182;48.174;11.562;2022-10-16T11:36:14;1.20;;;1.20;;
27802;SDS011;15182;48.174;11.562;2022-10-16T11:38:51;1.10;;;1.10;;
27802;SDS011;15182;48.174;11.562;2022-10-16T11:41:32;1.30;;;1.30;;
27802;SDS011;15182;48.174;11.562;2022-10-16T11:44:09;1.33;;;1.33;;
27802;SDS011;15182;48.174;11.562;2022-10-16T11:47:01;1.20;;;1.20;;
27802;SDS011;15182;48.174;11.562;2022-10-16T11:49:42;1.02;;;1.02;;
27802;SDS011;15182;48.174;11.562;2022-10-16T11:52:16;1.05;;;1.05;;
27802;SDS011;15182;48.174;11.562;2022-10-16T11:54:54;1.00;;;1.00;;
27802;SDS011;15182;48.174;11.562;2022-10-16T11:57:30;1.00;;;1.00;;
27802;SDS011;15182;48.174;11.562;2022-10-16T12:00:08;2.50;;;1.00;;
27802;SDS011;15182;48.174;11.562;2022-10-16T12:02:54;1.02;;;1.02;;
27802;SDS011;15182;48.174;11.562;2022-10-16T12:05:33;0.93;;;0.93;;
27802;SDS011;15182;48.174;11.562;2022-10-16T12:08:18;1.20;;;1.20;;
27802;SDS011;15182;48.174;11.562;2022-10-16T12:10:50;1.45;;;1.35;;
27802;SDS011;15182;48.174;11.562;2022-10-16T13:29:41;1.40;;;1.40;;
27802;SDS011;15182;48.174;11.562;2022-10-16T13:32:14;2.80;;;1.60;;
27802;SDS011;15182;48.174;11.562;2022-10-16T13:34:47;2.70;;;1.40;;
27802;SDS011;15182;48.174;11.562;2022-10-16T13:37:20;1.48;;;1.48;;
27802;SDS011;15182;48.174;11.562;2022-10-16T13:40:02;1.27;;;1.27;;
27802;SDS011;15182;48.174;11.562;2022-10-16T13:42:48;1.15;;;1.15;;
27802;SDS011;15182;48.174;11.562;2022-10-16T13:45:24;1.50;;;1.50;;
27802;SDS011;15182;48.174;11.562;2022-10-16T13:48:02;1.35;;;1.35;;
27802;SDS011;15182;48.174;11.562;2022-10-16T13:50:38;1.30;;;1.30;;
27802;SDS011;15182;48.174;11.562;2022-10-16T13:53:13;1.50;;;1.50;;
27802;SDS011;15182;48.174;11.562;2022-10-16T13:55:44;1.20;;;1.20;;
27802;SDS011;15182;48.174;11.562;2022-10-16T13:58:18;1.50;;;1.50;;
27802;SDS011;15182;48.174;11.562;2022-10-16T14:00:54;1.55;;;1.55;;
27802;SDS011;15182;48.174;11.562;2022-10-16T14:03:28;2.25;;;2.17;;
27802;SDS011;15182;48.174;11.562;2022-10-16T14:06:02;2.85;;;2.85;;
27802;SDS011;15182;48.174;11.562;2022-10-16T14:08:41;2.80;;;2.67;;
27802;SDS011;15182;48.174;11.562;2022-10-16T14:11:22;2.35;;;2.25;;
27802;SDS011;15182;48.174;11.562;2022-10-16T14:13:54;2.45;;;2.45;;
27802;SDS011;15182;48.174;11.562;2022-10-16T14:16:28;3.08;;;1.90;;
27802;SDS011;15182;48.174;11.562;2022-10-16T14:19:01;1.80;;;1.80;;
27802;SDS011;15182;48.174;11.562;2022-10-16T14:21:41;2.70;;;2.50;;
27802;SDS011;15182;48.174;11.562;2022-10-16T14:24:13;2.97;;;1.63;;
27802;SDS011;15182;48.174;11.562;2022-10-16T14:26:58;1.60;;;1.60;;
27802;SDS011;15182;48.174;11.562;2022-10-16T14:29:47;5.60;;;2.33;;
27802;SDS011;15182;48.174;11.562;2022-10-16T14:32:29;58.70;;;48.28;;
27802;SDS011;15182;48.174;11.562;2022-10-16T14:35:01;247.80;;;154.05;;
27802;SDS011;15182;48.174;11.562;2022-10-16T14:37:38;251.73;;;152.25;;
27802;SDS011;15182;48.174;11.562;2022-10-16T14:40:11;127.25;;;78.38;;
27802;SDS011;15182;48.174;11.562;2022-10-16T14:42:46;277.77;;;188.48;;
27802;SDS011;15182;48.174;11.562;2022-10-16T14:45:18;540.70;;;278.75;;
27802;SDS011;15182;48.174;11.562;2022-10-16T14:47:55;283.00;;;136.23;;
27802;SDS011;15182;48.174;11.562;2022-10-16T14:50:32;114.78;;;63.63;;
27802;SDS011;15182;48.174;11.562;2022-10-16T14:53:07;46.47;;;28.95;;
27802;SDS011;15182;48.174;11.562;2022-10-16T14:55:40;29.27;;;17.50;;
27802;SDS011;15182;48.174;11.562;2022-10-16T14:58:14;15.88;;;11.27;;
27802;SDS011;15182;48.174;11.562;2022-10-16T15:00:47;7.28;;;6.68;;
27802;SDS011;15182;48.174;11.562;2022-10-16T15:03:20;6.32;;;5.60;;
27802;SDS011;15182;48.174;11.562;2022-10-16T15:05:51;4.68;;;4.43;;
27802;SDS011;15182;48.174;11.562;2022-10-16T15:08:23;4.30;;;4.10;;
27802;SDS011;15182;48.174;11.562;2022-10-16T15:10:54;3.75;;;3.58;;
27802;SDS011;15182;48.174;11.562;2022-10-16T15:13:25;3.92;;;3.63;;
27802;SDS011;15182;48.174;11.562;2022-10-16T15:15:57;4.03;;;3.72;;
27802;SDS011;15182;48.174;11.562;2022-10-16T15:18:29;3.75;;;3.65;;
27802;SDS011;15182;48.174;11.562;2022-10-16T15:21:01;4.93;;;4.40;;
27802;SDS011;15182;48.174;11.562;2022-10-16T15:23:32;4.10;;;3.80;;
27802;SDS011;15182;48.174;11.562;2022-10-16T15:26:04;9.85;;;9.13;;
27802;SDS011;15182;48.174;11.562;2022-10-16T15:28:37;57.08;;;28.70;;
27802;SDS011;15182;48.174;11.562;2022-10-16T15:31:08;41.83;;;25.50;;
27802;SDS011;15182;48.174;11.562;2022-10-16T15:33:41;29.95;;;18.00;;
27802;SDS011;15182;48.174;11.562;2022-10-16T15:36:27;18.27;;;12.52;;
27802;SDS011;15182;48.174;11.562;2022-10-16T15:39:02;9.18;;;7.72;;
27802;SDS011;15182;48.174;11.562;2022-10-16T15:41:36;5.32;;;4.90;;
27802;SDS011;15182;48.174;11.562;2022-10-16T15:44:08;2.90;;;2.88;;
27802;SDS011;15182;48.174;11.562;2022-10-16T15:46:40;2.78;;;2.67;;
27802;SDS011;15182;48.174;11.562;2022-10-16T15:49:12;2.25;;;2.25;;
27802;SDS011;15182;48.174;11.562;2022-10-16T15:51:44;1.75;;;1.75;;
27802;SDS011;15182;48.174;11.562;2022-10-16T15:54:17;4.43;;;2.00;;
27802;SDS011;15182;48.174;11.562;2022-10-16T15:56:49;1.70;;;1.70;;
27802;SDS011;15182;48.174;11.562;2022-10-16T15:59:20;1.95;;;1.95;;
27802;SDS011;15182;48.174;11.562;2022-10-16T16:01:51;1.88;;;1.80;;
27802;SDS011;15182;48.174;11.562;2022-10-16T16:04:24;1.70;;;1.70;;
27802;SDS011;15182;48.174;11.562;2022-10-16T16:06:58;2.08;;;1.98;;
27802;SDS011;15182;48.174;11.562;2022-10-16T16:09:31;1.80;;;1.80;;
27802;SDS011;15182;48.174;11.562;2022-10-16T16:12:02;2.17;;;2.03;;
27802;SDS011;15182;48.174;11.562;2022-10-16T16:14:35;2.45;;;2.25;;
27802;SDS011;15182;48.174;11.562;2022-10-16T16:17:06;2.13;;;2.10;;
27802;SDS011;15182;48.174;11.562;2022-10-16T16:19:40;1.90;;;1.90;;
27802;SDS011;15182;48.174;11.562;2022-10-16T16:22:12;2.05;;;1.95;;
27802;SDS011;15182;48.174;11.562;2022-10-16T16:24:45;2.05;;;2.05;;
27802;SDS011;15182;48.174;11.562;2022-10-16T16:27:17;1.92;;;1.92;;
27802;SDS011;15182;48.174;11.562;2022-10-16T16:29:52;2.67;;;2.30;;
27802;SDS011;15182;48.174;11.562;2022-10-16T16:32:23;2.78;;;2.55;;
27802;SDS011;15182;48.174;11.562;2022-10-16T16:34:55;2.63;;;2.53;;
27802;SDS011;15182;48.174;11.562;2022-10-16T16:37:29;2.50;;;2.40;;
27802;SDS011;15182;48.174;11.562;2022-10-16T16:40:01;2.42;;;2.42;;